createdAt,value
2019-03-31T00:01:16.071Z,34.17
2019-03-31T00:03:44.849Z,34.92
2019-03-31T00:06:13.701Z,32.90
2019-03-31T00:08:42.887Z,32.80
2019-03-31T00:11:11.742Z,34.70
2019-03-31T00:13:40.579Z,39.38
2019-03-31T00:16:09.370Z,36.55
2019-03-31T00:18:38.145Z,34.63
2019-03-31T00:21:07.235Z,35.46
2019-03-31T00:23:36.103Z,33.28
2019-03-31T00:26:04.893Z,34.10
2019-03-31T00:28:34.026Z,34.27
2019-03-31T00:31:02.823Z,31.57
2019-03-31T00:33:31.590Z,32.55
2019-03-31T00:36:00.370Z,34.83
2019-03-31T00:38:29.243Z,35.63
2019-03-31T00:40:58.021Z,36.63
2019-03-31T00:43:26.788Z,37.45
2019-03-31T00:45:55.582Z,39.50
2019-03-31T00:48:24.351Z,36.38
2019-03-31T00:50:53.140Z,37.65
2019-03-31T00:53:22.017Z,37.20
2019-03-31T00:55:51.105Z,37.35
2019-03-31T00:58:19.893Z,37.25
2019-03-31T01:00:50.648Z,36.42
2019-03-31T01:03:19.489Z,37.63
2019-03-31T01:05:48.252Z,36.17
2019-03-31T01:08:17.899Z,33.60
2019-03-31T01:10:46.666Z,33.95
2019-03-31T01:13:15.440Z,34.83
2019-03-31T01:15:44.252Z,36.77
2019-03-31T01:18:13.036Z,37.85
2019-03-31T01:20:42.273Z,33.85
2019-03-31T01:23:11.146Z,37.65
2019-03-31T01:25:40.059Z,36.23
2019-03-31T01:28:08.898Z,38.05
2019-03-31T01:30:37.703Z,40.58
2019-03-31T01:33:06.481Z,41.13
2019-03-31T01:35:35.247Z,43.35
2019-03-31T01:38:04.062Z,40.33
2019-03-31T01:40:32.914Z,47.48
2019-03-31T01:43:01.748Z,46.23
2019-03-31T01:45:30.556Z,47.13
2019-03-31T01:47:59.319Z,47.73
2019-03-31T01:50:28.151Z,46.42
2019-03-31T01:52:56.961Z,43.92
2019-03-31T01:55:25.748Z,46.25
2019-03-31T01:57:54.867Z,49.93
2019-03-31T02:00:25.604Z,47.60
2019-03-31T02:02:54.793Z,45.20
2019-03-31T02:05:23.562Z,45.45
2019-03-31T02:07:52.686Z,43.95
2019-03-31T02:10:21.776Z,48.98
2019-03-31T02:12:50.558Z,51.50
2019-03-31T02:15:19.375Z,49.67
2019-03-31T02:17:48.136Z,47.75
2019-03-31T02:20:16.924Z,48.28
2019-03-31T02:22:45.733Z,46.90
2019-03-31T02:25:14.509Z,47.48
2019-03-31T02:27:43.295Z,47.70
2019-03-31T02:30:12.170Z,47.93
2019-03-31T02:32:41.313Z,52.55
2019-03-31T02:35:10.160Z,52.20
2019-03-31T02:37:38.976Z,53.40
2019-03-31T02:40:07.739Z,54.25
2019-03-31T02:42:36.508Z,56.42
2019-03-31T02:45:07.354Z,59.38
2019-03-31T02:47:36.198Z,57.58
2019-03-31T02:50:06.209Z,57.55
2019-03-31T02:52:35.019Z,55.43
2019-03-31T02:55:03.866Z,54.85
2019-03-31T02:57:32.704Z,53.92
2019-03-31T03:00:01.507Z,57.93
2019-03-31T03:02:41.566Z,68.25
2019-03-31T03:05:17.859Z,63.28
2019-03-31T03:07:31.355Z,66.90
2019-03-31T03:10:00.630Z,68.02
2019-03-31T03:12:30.537Z,62.23
2019-03-31T03:15:00.676Z,58.50
2019-03-31T03:17:29.465Z,64.22
2019-03-31T03:19:58.311Z,62.98
2019-03-31T03:22:27.116Z,57.35
2019-03-31T03:24:55.891Z,57.00
2019-03-31T03:27:24.753Z,55.98
2019-03-31T03:29:53.606Z,54.25
2019-03-31T03:32:22.503Z,55.03
2019-03-31T03:34:51.631Z,51.42
2019-03-31T03:37:20.450Z,57.88
2019-03-31T03:39:49.577Z,57.15
2019-03-31T03:42:18.370Z,60.90
2019-03-31T03:44:47.174Z,61.08
2019-03-31T03:47:15.962Z,58.63
2019-03-31T03:49:45.135Z,53.95
2019-03-31T03:52:13.921Z,55.80
2019-03-31T03:54:42.692Z,55.38
2019-03-31T03:57:11.470Z,57.50
2019-03-31T03:59:40.297Z,55.60
2019-03-31T04:02:09.130Z,57.03
2019-03-31T04:04:37.988Z,57.10
2019-03-31T04:07:07.197Z,59.67
2019-03-31T04:09:35.995Z,59.03
2019-03-31T04:12:04.851Z,61.65
2019-03-31T04:14:33.714Z,54.95
2019-03-31T04:17:02.493Z,59.35
2019-03-31T04:19:31.271Z,61.60
2019-03-31T04:22:00.067Z,57.58
2019-03-31T04:24:28.917Z,55.55
2019-03-31T04:26:57.764Z,58.25
2019-03-31T04:29:26.585Z,58.00
2019-03-31T04:31:55.374Z,57.48
2019-03-31T04:34:24.201Z,60.90
2019-03-31T04:36:53.056Z,62.13
2019-03-31T04:39:21.832Z,62.10
2019-03-31T04:41:50.953Z,60.80
2019-03-31T04:44:19.842Z,59.25
2019-03-31T04:46:48.702Z,52.20
2019-03-31T04:49:17.858Z,52.58
2019-03-31T04:51:46.742Z,53.48
2019-03-31T04:54:15.517Z,53.35
2019-03-31T04:56:44.308Z,58.08
2019-03-31T04:59:13.176Z,55.58
2019-03-31T05:01:41.939Z,57.70
2019-03-31T05:04:10.749Z,59.83
2019-03-31T05:06:39.631Z,58.90
2019-03-31T05:09:08.407Z,58.45
2019-03-31T05:11:37.180Z,56.90
2019-03-31T05:14:05.990Z,61.40
2019-03-31T05:16:34.840Z,63.23
2019-03-31T05:19:03.626Z,69.87
2019-03-31T05:21:32.436Z,82.60
2019-03-31T05:24:01.289Z,87.00
2019-03-31T05:26:30.053Z,74.10
2019-03-31T05:28:58.877Z,76.57
2019-03-31T05:31:27.661Z,81.97
2019-03-31T05:33:56.430Z,76.67
2019-03-31T05:36:25.243Z,76.53
2019-03-31T05:38:54.023Z,73.57
2019-03-31T05:41:22.860Z,76.42
2019-03-31T05:44:04.840Z,78.30
2019-03-31T05:46:22.139Z,79.58
2019-03-31T05:48:56.736Z,78.47
2019-03-31T05:51:25.577Z,71.27
2019-03-31T05:53:54.343Z,72.85
2019-03-31T05:56:23.197Z,71.97
2019-03-31T05:58:52.033Z,74.70
2019-03-31T06:01:20.793Z,70.63
2019-03-31T06:03:49.587Z,73.22
2019-03-31T06:06:19.327Z,71.23
2019-03-31T06:08:48.181Z,71.12
2019-03-31T06:11:16.989Z,69.67
2019-03-31T06:13:46.132Z,69.77
2019-03-31T06:16:14.980Z,67.45
2019-03-31T06:18:43.829Z,67.92
2019-03-31T06:21:12.677Z,69.03
2019-03-31T06:23:41.466Z,67.45
2019-03-31T06:26:10.262Z,69.87
2019-03-31T06:28:39.117Z,84.58
2019-03-31T06:31:07.886Z,78.47
2019-03-31T06:33:36.698Z,76.47
2019-03-31T06:36:05.494Z,74.22
2019-03-31T06:38:34.625Z,72.20
2019-03-31T06:41:03.902Z,71.02
2019-03-31T06:43:32.685Z,71.92
2019-03-31T06:46:01.867Z,67.87
2019-03-31T06:48:30.775Z,71.47
2019-03-31T06:50:59.631Z,71.47
2019-03-31T06:53:28.419Z,73.62
2019-03-31T06:55:57.301Z,71.47
2019-03-31T06:58:26.086Z,72.47
2019-03-31T07:00:54.868Z,74.03
2019-03-31T07:03:23.692Z,72.87
2019-03-31T07:05:52.541Z,72.67
2019-03-31T07:08:21.345Z,69.95
2019-03-31T07:10:50.154Z,71.90
2019-03-31T07:13:18.920Z,73.50
2019-03-31T07:15:47.697Z,70.03
2019-03-31T07:18:16.536Z,73.67
2019-03-31T07:20:45.348Z,69.15
2019-03-31T07:23:14.202Z,69.00
2019-03-31T07:25:43.086Z,68.35
2019-03-31T07:28:11.875Z,70.20
2019-03-31T07:30:40.747Z,68.95
2019-03-31T07:33:09.888Z,66.90
2019-03-31T07:35:39.095Z,67.78
2019-03-31T07:38:08.218Z,68.28
2019-03-31T07:40:37.061Z,67.58
2019-03-31T07:43:06.047Z,67.27
2019-03-31T07:45:34.954Z,65.78
2019-03-31T07:48:03.786Z,65.87
2019-03-31T07:50:32.626Z,63.55
2019-03-31T07:53:01.504Z,65.65
2019-03-31T07:55:30.360Z,63.68
2019-03-31T07:57:59.152Z,58.48
2019-03-31T08:00:28.013Z,58.23
2019-03-31T08:03:00.030Z,57.05
2019-03-31T08:05:33.263Z,58.10
2019-03-31T08:07:58.140Z,58.75
2019-03-31T08:10:27.008Z,55.63
2019-03-31T08:12:55.776Z,57.53
2019-03-31T08:15:24.913Z,53.63
2019-03-31T08:17:53.771Z,52.60
2019-03-31T08:20:22.559Z,53.33
2019-03-31T08:22:51.344Z,54.35
2019-03-31T08:25:22.111Z,51.33
2019-03-31T08:27:50.883Z,49.48
2019-03-31T08:30:19.668Z,49.83
2019-03-31T08:32:48.484Z,46.55
2019-03-31T08:35:17.692Z,45.92
2019-03-31T08:37:46.469Z,44.75
2019-03-31T08:40:15.306Z,43.15
2019-03-31T08:42:44.153Z,42.05
2019-03-31T08:45:12.937Z,43.10
2019-03-31T08:47:41.750Z,40.40
2019-03-31T08:50:12.574Z,40.63
2019-03-31T08:52:41.439Z,37.75
2019-03-31T08:55:10.300Z,39.38
2019-03-31T08:57:39.094Z,37.30
2019-03-31T09:00:10.944Z,38.10
2019-03-31T09:02:39.767Z,38.13
2019-03-31T09:05:09.028Z,36.58
2019-03-31T09:07:37.946Z,35.48
2019-03-31T09:10:09.356Z,36.28
2019-03-31T09:12:38.496Z,33.35
2019-03-31T09:15:08.717Z,35.78
2019-03-31T09:17:37.876Z,33.23
2019-03-31T09:20:07.485Z,34.78
2019-03-31T09:22:36.332Z,36.15
2019-03-31T09:25:05.983Z,35.10
2019-03-31T09:27:34.754Z,35.17
2019-03-31T09:30:06.952Z,34.98
2019-03-31T09:32:35.822Z,36.40
2019-03-31T09:35:07.157Z,35.68
2019-03-31T09:37:36.406Z,34.03
2019-03-31T09:40:06.647Z,35.50
2019-03-31T09:42:35.910Z,32.42
2019-03-31T09:45:06.340Z,32.42
2019-03-31T09:47:35.518Z,32.38
2019-03-31T09:50:07.601Z,33.15
2019-03-31T09:52:36.417Z,33.20
2019-03-31T09:55:07.179Z,32.75
2019-03-31T09:57:35.952Z,32.53
2019-03-31T10:00:12.772Z,29.52
2019-03-31T10:02:41.623Z,29.60
2019-03-31T10:05:10.416Z,29.18
2019-03-31T10:07:39.275Z,29.35
2019-03-31T10:10:09.513Z,29.60
2019-03-31T10:12:38.289Z,28.77
2019-03-31T10:15:07.726Z,28.02
2019-03-31T10:17:36.555Z,27.37
2019-03-31T10:20:05.976Z,25.95
2019-03-31T10:22:34.837Z,26.37
2019-03-31T10:25:06.092Z,26.35
2019-03-31T10:27:34.935Z,27.27
2019-03-31T10:30:05.628Z,26.55
2019-03-31T10:32:34.432Z,26.57
2019-03-31T10:35:03.882Z,24.45
2019-03-31T10:37:32.665Z,24.90
2019-03-31T10:40:01.535Z,24.47
2019-03-31T10:42:30.612Z,24.12
2019-03-31T10:44:59.403Z,23.80
2019-03-31T10:47:28.214Z,24.72
2019-03-31T10:49:57.130Z,25.12
2019-03-31T10:52:25.899Z,24.98
2019-03-31T10:54:54.706Z,23.83
2019-03-31T10:57:23.493Z,25.43
2019-03-31T10:59:52.335Z,25.82
2019-03-31T11:02:21.166Z,24.85
2019-03-31T11:04:50.000Z,26.12
2019-03-31T11:07:18.839Z,26.23
2019-03-31T11:09:47.717Z,24.92
2019-03-31T11:12:16.565Z,25.05
2019-03-31T11:14:45.356Z,26.10
2019-03-31T11:17:14.498Z,24.85
2019-03-31T11:19:43.284Z,25.32
2019-03-31T11:22:13.766Z,24.80
2019-03-31T11:24:42.644Z,25.45
2019-03-31T11:27:11.418Z,24.18
2019-03-31T11:29:40.195Z,23.90
2019-03-31T11:32:09.004Z,22.67
2019-03-31T11:34:37.807Z,22.27
2019-03-31T11:37:13.441Z,22.07
2019-03-31T11:39:37.246Z,21.48
2019-03-31T11:42:06.090Z,20.65
2019-03-31T11:44:34.867Z,20.95
2019-03-31T11:47:03.801Z,19.90
2019-03-31T11:49:32.858Z,19.85
2019-03-31T11:52:01.672Z,20.82
2019-03-31T11:54:30.546Z,20.10
2019-03-31T11:56:59.323Z,19.70
2019-03-31T11:59:28.098Z,19.57
2019-03-31T12:01:57.243Z,20.62
2019-03-31T12:04:26.087Z,19.90
2019-03-31T12:06:54.964Z,19.40
2019-03-31T12:09:23.823Z,19.62
2019-03-31T12:11:52.605Z,18.50
2019-03-31T12:14:21.482Z,18.65
2019-03-31T12:16:50.275Z,19.15
2019-03-31T12:19:19.361Z,18.98
2019-03-31T12:21:48.135Z,18.27
2019-03-31T12:24:16.947Z,18.55
2019-03-31T12:26:46.042Z,18.95
2019-03-31T12:29:14.902Z,18.57
2019-03-31T12:31:43.708Z,19.05
2019-03-31T12:34:12.490Z,18.60
2019-03-31T12:36:41.269Z,17.92
2019-03-31T12:39:10.107Z,17.85
2019-03-31T12:41:38.969Z,17.27
2019-03-31T12:44:07.819Z,17.27
2019-03-31T12:46:36.637Z,17.85
2019-03-31T12:49:05.422Z,16.97
2019-03-31T12:51:34.202Z,16.62
2019-03-31T12:54:03.070Z,16.10
2019-03-31T12:56:31.857Z,17.32
2019-03-31T12:59:00.714Z,17.82
2019-03-31T13:01:29.536Z,17.98
2019-03-31T13:03:58.716Z,17.30
2019-03-31T13:06:27.567Z,17.97
2019-03-31T13:08:56.368Z,17.35
2019-03-31T13:11:25.143Z,18.10
2019-03-31T13:13:53.929Z,16.48
2019-03-31T13:16:22.806Z,17.13
2019-03-31T13:18:52.146Z,17.12
2019-03-31T13:21:20.996Z,16.70
2019-03-31T13:23:49.799Z,17.27
2019-03-31T13:26:18.574Z,17.23
2019-03-31T13:28:47.359Z,17.52
2019-03-31T13:31:16.160Z,16.43
2019-03-31T13:33:45.335Z,14.93
2019-03-31T13:36:14.167Z,16.10
2019-03-31T13:38:43.262Z,14.78
2019-03-31T13:41:12.114Z,14.65
2019-03-31T13:43:40.985Z,14.35
2019-03-31T13:46:09.877Z,14.60
2019-03-31T13:48:38.663Z,13.58
2019-03-31T13:51:07.431Z,45.83
2019-03-31T13:53:36.247Z,19.50
2019-03-31T13:56:05.458Z,20.25
2019-03-31T13:58:38.665Z,17.35
2019-03-31T14:03:36.422Z,28.45
2019-03-31T14:06:06.113Z,15.13
2019-03-31T14:08:34.973Z,21.00
2019-03-31T14:11:03.825Z,17.55
2019-03-31T14:13:32.910Z,23.52
2019-03-31T14:16:01.714Z,22.65
2019-03-31T14:18:30.483Z,26.15
2019-03-31T14:20:59.347Z,25.05
2019-03-31T14:23:28.703Z,17.65
2019-03-31T14:25:58.014Z,15.90
2019-03-31T14:28:29.295Z,17.05
2019-03-31T14:30:58.787Z,16.45
2019-03-31T14:33:27.995Z,16.30
2019-03-31T14:35:57.383Z,16.62
2019-03-31T14:38:39.403Z,16.40
2019-03-31T14:40:57.690Z,17.00
2019-03-31T14:43:48.903Z,18.82
2019-03-31T14:46:19.607Z,17.93
2019-03-31T14:48:48.227Z,17.98
2019-03-31T14:51:17.342Z,18.70
2019-03-31T14:53:46.201Z,17.42
2019-03-31T14:56:15.038Z,16.87
2019-03-31T14:58:43.867Z,16.65
2019-03-31T15:01:12.718Z,17.77
2019-03-31T15:03:41.573Z,16.75
2019-03-31T15:06:10.406Z,16.65
2019-03-31T15:08:53.533Z,16.25
2019-03-31T15:11:09.712Z,16.48
2019-03-31T15:13:38.599Z,16.07
2019-03-31T15:16:07.461Z,16.90
2019-03-31T15:18:36.264Z,16.32
2019-03-31T15:21:05.121Z,15.48
2019-03-31T15:23:34.111Z,15.55
2019-03-31T15:26:03.354Z,14.73
2019-03-31T15:28:32.268Z,15.10
2019-03-31T15:31:01.116Z,13.83
2019-03-31T15:33:29.898Z,14.20
2019-03-31T15:35:58.718Z,13.58
2019-03-31T15:38:27.511Z,13.13
2019-03-31T15:40:56.363Z,12.78
2019-03-31T15:43:26.031Z,12.15
2019-03-31T15:45:54.823Z,11.97
2019-03-31T15:48:23.682Z,11.80
2019-03-31T15:50:52.496Z,11.43
2019-03-31T15:53:21.279Z,11.48
2019-03-31T15:55:50.063Z,11.43
2019-03-31T15:58:20.915Z,11.38
2019-03-31T16:00:49.761Z,11.63
2019-03-31T16:03:18.616Z,15.48
2019-03-31T16:05:47.428Z,11.70
2019-03-31T16:08:16.207Z,11.65
2019-03-31T16:10:45.004Z,11.25
2019-03-31T16:13:13.902Z,11.70
2019-03-31T16:15:42.758Z,11.80
2019-03-31T16:18:11.604Z,11.43
2019-03-31T16:20:40.403Z,10.50
2019-03-31T16:23:09.262Z,11.00
2019-03-31T16:25:39.685Z,11.03
2019-03-31T16:28:08.497Z,10.85
2019-03-31T16:30:37.846Z,9.95
2019-03-31T16:33:07.174Z,10.18
2019-03-31T16:35:36.307Z,10.18
2019-03-31T16:38:05.092Z,10.20
2019-03-31T16:40:33.874Z,10.48
2019-03-31T16:43:02.675Z,9.95
2019-03-31T16:45:31.793Z,9.53
2019-03-31T16:48:00.575Z,9.55
2019-03-31T16:50:29.437Z,9.35
2019-03-31T16:52:58.286Z,8.53
2019-03-31T16:55:27.054Z,8.48
2019-03-31T16:57:56.204Z,7.80
2019-03-31T17:00:24.996Z,8.40
2019-03-31T17:02:53.778Z,8.63
2019-03-31T17:05:22.768Z,8.50
2019-03-31T17:07:51.631Z,8.18
2019-03-31T17:10:20.475Z,7.67
2019-03-31T17:12:49.350Z,7.92
2019-03-31T17:15:18.505Z,7.00
2019-03-31T17:17:47.619Z,7.28
2019-03-31T17:20:16.492Z,7.12
2019-03-31T17:22:45.269Z,7.45
2019-03-31T17:25:14.394Z,7.03
2019-03-31T17:27:43.278Z,7.17
2019-03-31T17:30:12.061Z,7.22
2019-03-31T17:32:40.847Z,6.70
2019-03-31T17:35:09.720Z,6.53
2019-03-31T17:37:38.495Z,6.58
2019-03-31T17:40:07.755Z,6.03
2019-03-31T17:42:36.654Z,6.15
2019-03-31T17:45:07.141Z,5.70
2019-03-31T17:47:36.582Z,6.05
2019-03-31T17:50:05.651Z,5.65
2019-03-31T17:52:34.429Z,6.08
2019-03-31T17:55:04.221Z,5.20
2019-03-31T17:57:33.025Z,5.35
2019-03-31T18:00:01.825Z,5.70
2019-03-31T18:02:30.593Z,4.95
2019-03-31T18:04:59.437Z,5.10
2019-03-31T18:07:28.274Z,4.75
2019-03-31T18:09:57.056Z,5.25
2019-03-31T18:12:25.883Z,4.95
2019-03-31T18:14:54.662Z,4.85
2019-03-31T18:17:23.441Z,4.80
2019-03-31T18:19:52.250Z,5.47
2019-03-31T18:22:21.046Z,5.10
2019-03-31T18:24:49.817Z,4.58
2019-03-31T18:27:18.627Z,4.80
2019-03-31T18:29:47.406Z,4.97
2019-03-31T18:32:16.193Z,5.10
2019-03-31T18:34:45.008Z,4.75
2019-03-31T18:37:13.852Z,5.03
2019-03-31T18:39:42.993Z,4.40
2019-03-31T18:42:11.870Z,4.83
2019-03-31T18:44:40.647Z,4.87
2019-03-31T18:47:09.780Z,4.17
2019-03-31T18:49:38.652Z,4.70
2019-03-31T18:52:07.415Z,4.00
2019-03-31T18:54:53.931Z,5.05
2019-03-31T18:57:30.377Z,4.42
2019-03-31T19:00:09.706Z,4.67
2019-03-31T19:02:56.599Z,4.37
2019-03-31T19:05:36.158Z,4.65
2019-03-31T19:08:15.970Z,4.25
2019-03-31T19:10:49.730Z,4.47
2019-03-31T19:13:34.984Z,4.28
2019-03-31T19:16:15.349Z,4.15
2019-03-31T19:19:04.025Z,4.20
2019-03-31T19:21:34.468Z,3.98
2019-03-31T19:24:10.978Z,4.25
2019-03-31T19:26:48.611Z,4.35
2019-03-31T19:29:32.148Z,4.25
2019-03-31T19:32:02.589Z,4.25
2019-03-31T19:34:33.078Z,4.12
2019-03-31T19:37:12.610Z,4.25
2019-03-31T19:40:01.667Z,4.17
2019-03-31T19:42:32.085Z,4.05
2019-03-31T19:45:18.603Z,4.05
2019-03-31T19:47:58.141Z,3.95
2019-03-31T19:50:46.686Z,4.30
2019-03-31T19:53:35.786Z,3.98
2019-03-31T19:56:22.184Z,4.47
2019-03-31T19:58:52.640Z,4.17
2019-03-31T20:01:34.750Z,4.13
2019-03-31T20:04:23.457Z,4.17
2019-03-31T20:06:56.469Z,4.47
2019-03-31T20:09:43.387Z,4.25
2019-03-31T20:12:13.803Z,4.83
2019-03-31T20:15:00.632Z,4.53
2019-03-31T20:17:31.111Z,4.60
2019-03-31T20:20:19.613Z,5.05
2019-03-31T20:22:53.074Z,5.50
2019-03-31T20:25:23.556Z,4.78
2019-03-31T20:27:59.826Z,5.00
2019-03-31T20:30:42.356Z,5.17
2019-03-31T20:33:18.749Z,5.10
2019-03-31T20:35:52.093Z,5.17
2019-03-31T20:38:38.855Z,5.05
2019-03-31T20:41:09.327Z,5.20
2019-03-31T20:43:42.797Z,5.22
2019-03-31T20:46:11.598Z,5.42
2019-03-31T20:48:40.430Z,5.92
2019-03-31T20:51:09.214Z,6.10
2019-03-31T20:53:38.014Z,5.53
2019-03-31T20:56:06.822Z,5.17
2019-03-31T20:58:35.652Z,5.40
2019-03-31T21:01:04.482Z,5.70
2019-03-31T21:03:33.271Z,6.22
2019-03-31T21:06:02.142Z,5.70
2019-03-31T21:08:30.974Z,5.95
2019-03-31T21:10:59.827Z,6.35
2019-03-31T21:13:28.598Z,6.22
2019-03-31T21:15:57.465Z,6.20
2019-03-31T21:18:26.238Z,6.30
2019-03-31T21:20:55.010Z,5.70
2019-03-31T21:23:23.897Z,6.03
2019-03-31T21:25:52.656Z,6.58
2019-03-31T21:28:21.755Z,6.12
2019-03-31T21:30:50.624Z,6.45
2019-03-31T21:33:19.470Z,6.80
2019-03-31T21:35:48.658Z,5.95
2019-03-31T21:38:18.218Z,6.10
2019-03-31T21:40:46.993Z,6.10
2019-03-31T21:43:15.761Z,6.15
2019-03-31T21:45:45.796Z,6.05
2019-03-31T21:48:14.572Z,5.45
2019-03-31T21:50:43.331Z,5.50
2019-03-31T21:53:12.144Z,5.70
2019-03-31T21:55:40.934Z,5.58
2019-03-31T21:58:09.760Z,5.70
2019-03-31T22:00:51.755Z,6.20
2019-03-31T22:03:20.591Z,6.15
2019-03-31T22:05:49.430Z,6.00
2019-03-31T22:08:18.661Z,5.65
2019-03-31T22:10:47.518Z,5.83
2019-03-31T22:13:16.360Z,5.75
2019-03-31T22:15:45.162Z,5.17
2019-03-31T22:18:14.014Z,5.80
2019-03-31T22:20:42.776Z,5.62
2019-03-31T22:23:11.622Z,5.67
2019-03-31T22:25:40.418Z,4.70
2019-03-31T22:28:09.201Z,5.70
2019-03-31T22:30:38.059Z,5.05
2019-03-31T22:33:06.833Z,5.53
2019-03-31T22:35:35.595Z,4.85
2019-03-31T22:38:04.399Z,5.95
2019-03-31T22:40:33.220Z,5.17
2019-03-31T22:43:01.998Z,4.55
2019-03-31T22:45:30.806Z,4.28
2019-03-31T22:47:59.904Z,5.15
2019-03-31T22:50:28.756Z,4.05
2019-03-31T22:52:57.556Z,4.75
2019-03-31T22:55:26.334Z,3.90
2019-03-31T22:57:55.120Z,4.17
2019-03-31T23:00:27.661Z,3.90
2019-03-31T23:02:56.508Z,3.50
2019-03-31T23:05:25.353Z,3.75
2019-03-31T23:07:54.139Z,4.22
2019-03-31T23:10:22.903Z,3.72
2019-03-31T23:12:51.999Z,3.83
2019-03-31T23:15:20.786Z,3.98
2019-03-31T23:17:49.562Z,3.65
2019-03-31T23:20:18.394Z,3.70
2019-03-31T23:22:47.202Z,3.60
2019-03-31T23:25:15.963Z,2.87
2019-03-31T23:27:44.743Z,3.30
2019-03-31T23:30:13.833Z,3.47
2019-03-31T23:32:42.671Z,3.30
2019-03-31T23:35:11.445Z,2.98
2019-03-31T23:37:40.239Z,3.15
2019-03-31T23:40:09.006Z,3.72
2019-03-31T23:42:37.776Z,2.75
2019-03-31T23:45:06.628Z,2.87
2019-03-31T23:47:35.406Z,2.90
2019-03-31T23:50:04.896Z,3.00
2019-03-31T23:52:33.716Z,2.35
2019-03-31T23:55:02.490Z,2.83
2019-03-31T23:57:41.821Z,2.67
